sensor_id;sensor_type;location;lat;lon;timestamp;pressure;altitude;pressure_sealevel;temperature;humidity
21240;BME280;10778;48.962;9.018;2023-12-07T00:01:55;99461.78;;;-0.54;100.00
21240;BME280;10778;48.962;9.018;2023-12-07T00:04:21;99460.94;;;-0.55;100.00
21240;BME280;10778;48.962;9.018;2023-12-07T00:06:48;99453.56;;;-0.64;100.00
21240;BME280;10778;48.962;9.018;2023-12-07T00:09:14;99461.31;;;-0.64;100.00
21240;BME280;10778;48.962;9.018;2023-12-07T00:11:40;99465.50;;;-0.62;100.00
21240;BME280;10778;48.962;9.018;2023-12-07T00:14:06;99461.13;;;-0.60;100.00
21240;BME280;10778;48.962;9.018;2023-12-07T00:16:32;99463.59;;;-0.56;100.00
21240;BME280;10778;48.962;9.018;2023-12-07T00:18:58;99471.41;;;-0.58;100.00
21240;BME280;10778;48.962;9.018;2023-12-07T00:21:24;99462.00;;;-0.61;100.00
21240;BME280;10778;48.962;9.018;2023-12-07T00:23:50;99461.84;;;-0.56;100.00
21240;BME280;10778;48.962;9.018;2023-12-07T00:26:16;99459.25;;;-0.56;100.00
21240;BME280;10778;48.962;9.018;2023-12-07T00:28:42;99457.38;;;-0.51;100.00
21240;BME280;10778;48.962;9.018;2023-12-07T00:31:09;99465.81;;;-0.47;100.00
21240;BME280;10778;48.962;9.018;2023-12-07T00:33:35;99469.19;;;-0.45;100.00
21240;BME280;10778;48.962;9.018;2023-12-07T00:36:01;99471.00;;;-0.47;100.00
21240;BME280;10778;48.962;9.018;2023-12-07T00:38:27;99478.03;;;-0.51;100.00
21240;BME280;10778;48.962;9.018;2023-12-07T00:40:53;99478.91;;;-0.52;100.00
21240;BME280;10778;48.962;9.018;2023-12-07T00:43:18;99484.09;;;-0.52;100.00
21240;BME280;10778;48.962;9.018;2023-12-07T00:45:44;99477.06;;;-0.48;100.00
21240;BME280;10778;48.962;9.018;2023-12-07T00:48:10;99482.31;;;-0.50;100.00
21240;BME280;10778;48.962;9.018;2023-12-07T00:50:36;99478.63;;;-0.44;100.00
21240;BME280;10778;48.962;9.018;2023-12-07T00:53:02;99482.66;;;-0.37;100.00
21240;BME280;10778;48.962;9.018;2023-12-07T00:55:28;99476.44;;;-0.31;100.00
21240;BME280;10778;48.962;9.018;2023-12-07T00:57:54;99480.63;;;-0.29;100.00
21240;BME280;10778;48.962;9.018;2023-12-07T01:00:20;99486.94;;;-0.36;100.00
21240;BME280;10778;48.962;9.018;2023-12-07T01:02:46;99485.19;;;-0.35;100.00
21240;BME280;10778;48.962;9.018;2023-12-07T01:05:12;99482.59;;;-0.35;100.00
21240;BME280;10778;48.962;9.018;2023-12-07T01:07:38;99490.56;;;-0.40;100.00
21240;BME280;10778;48.962;9.018;2023-12-07T01:10:05;99493.13;;;-0.40;100.00
21240;BME280;10778;48.962;9.018;2023-12-07T01:12:31;99492.91;;;-0.34;100.00
21240;BME280;10778;48.962;9.018;2023-12-07T01:14:57;99490.31;;;-0.34;100.00
21240;BME280;10778;48.962;9.018;2023-12-07T01:17:23;99502.03;;;-0.25;100.00
21240;BME280;10778;48.962;9.018;2023-12-07T01:19:49;99502.97;;;-0.27;100.00
21240;BME280;10778;48.962;9.018;2023-12-07T01:22:15;99501.50;;;-0.33;100.00
21240;BME280;10778;48.962;9.018;2023-12-07T01:24:41;99504.00;;;-0.32;100.00
21240;BME280;10778;48.962;9.018;2023-12-07T01:27:07;99503.22;;;-0.34;100.00
21240;BME280;10778;48.962;9.018;2023-12-07T01:29:33;99504.19;;;-0.36;100.00
21240;BME280;10778;48.962;9.018;2023-12-07T01:31:59;99505.81;;;-0.34;100.00
21240;BME280;10778;48.962;9.018;2023-12-07T01:34:25;99508.41;;;-0.34;100.00
21240;BME280;10778;48.962;9.018;2023-12-07T01:36:51;99507.50;;;-0.33;100.00
21240;BME280;10778;48.962;9.018;2023-12-07T01:39:17;99516.19;;;-0.35;100.00
21240;BME280;10778;48.962;9.018;2023-12-07T01:41:43;99516.56;;;-0.45;100.00
21240;BME280;10778;48.962;9.018;2023-12-07T01:44:09;99506.16;;;-0.43;100.00
21240;BME280;10778;48.962;9.018;2023-12-07T01:46:35;99512.41;;;-0.49;100.00
21240;BME280;10778;48.962;9.018;2023-12-07T01:49:02;99512.41;;;-0.49;100.00
21240;BME280;10778;48.962;9.018;2023-12-07T01:51:28;99514.03;;;-0.46;100.00
21240;BME280;10778;48.962;9.018;2023-12-07T01:53:54;99516.41;;;-0.40;100.00
21240;BME280;10778;48.962;9.018;2023-12-07T01:56:21;99510.25;;;-0.37;100.00
21240;BME280;10778;48.962;9.018;2023-12-07T01:58:47;99519.81;;;-0.39;100.00
21240;BME280;10778;48.962;9.018;2023-12-07T02:01:13;99519.81;;;-0.39;100.00
21240;BME280;10778;48.962;9.018;2023-12-07T02:03:40;99515.66;;;-0.44;100.00
21240;BME280;10778;48.962;9.018;2023-12-07T02:06:06;99524.16;;;-0.40;100.00
21240;BME280;10778;48.962;9.018;2023-12-07T02:08:37;99516.41;;;-0.40;100.00
21240;BME280;10778;48.962;9.018;2023-12-07T02:11:09;99517.41;;;-0.44;100.00
21240;BME280;10778;48.962;9.018;2023-12-07T02:13:37;99508.09;;;-0.48;100.00
21240;BME280;10778;48.962;9.018;2023-12-07T02:16:17;99514.31;;;-0.54;100.00
21240;BME280;10778;48.962;9.018;2023-12-07T02:19:01;99516.06;;;-0.54;100.00
21240;BME280;10778;48.962;9.018;2023-12-07T02:21:38;99519.44;;;-0.52;100.00
21240;BME280;10778;48.962;9.018;2023-12-07T02:24:06;99515.50;;;-0.63;100.00
21240;BME280;10778;48.962;9.018;2023-12-07T02:26:35;99506.97;;;-0.65;100.00
21240;BME280;10778;48.962;9.018;2023-12-07T02:29:03;99507.25;;;-0.73;100.00
21240;BME280;10778;48.962;9.018;2023-12-07T02:31:29;99503.06;;;-0.75;100.00
21240;BME280;10778;48.962;9.018;2023-12-07T02:33:55;99513.59;;;-0.81;100.00
21240;BME280;10778;48.962;9.018;2023-12-07T02:36:24;99509.59;;;-0.90;100.00
21240;BME280;10778;48.962;9.018;2023-12-07T02:38:51;99521.84;;;-0.95;100.00
21240;BME280;10778;48.962;9.018;2023-12-07T02:41:19;99506.47;;;-0.98;100.00
21240;BME280;10778;48.962;9.018;2023-12-07T02:43:46;99514.31;;;-1.02;100.00
21240;BME280;10778;48.962;9.018;2023-12-07T02:46:12;99517.09;;;-1.08;100.00
21240;BME280;10778;48.962;9.018;2023-12-07T02:48:39;99513.00;;;-1.13;100.00
21240;BME280;10778;48.962;9.018;2023-12-07T02:51:05;99511.41;;;-1.18;100.00
21240;BME280;10778;48.962;9.018;2023-12-07T02:53:31;99508.19;;;-1.24;100.00
21240;BME280;10778;48.962;9.018;2023-12-07T02:55:57;99509.97;;;-1.25;100.00
21240;BME280;10778;48.962;9.018;2023-12-07T02:58:23;99509.06;;;-1.24;100.00
21240;BME280;10778;48.962;9.018;2023-12-07T03:00:49;99514.34;;;-1.27;100.00
21240;BME280;10778;48.962;9.018;2023-12-07T03:03:15;99518.75;;;-1.31;100.00
21240;BME280;10778;48.962;9.018;2023-12-07T03:05:41;99518.91;;;-1.35;100.00
21240;BME280;10778;48.962;9.018;2023-12-07T03:08:07;99516.56;;;-1.43;100.00
21240;BME280;10778;48.962;9.018;2023-12-07T03:10:33;99521.88;;;-1.48;100.00
21240;BME280;10778;48.962;9.018;2023-12-07T03:12:59;99521.25;;;-1.54;100.00
21240;BME280;10778;48.962;9.018;2023-12-07T03:15:25;99521.25;;;-1.54;100.00
21240;BME280;10778;48.962;9.018;2023-12-07T03:17:52;99519.66;;;-1.59;100.00
21240;BME280;10778;48.962;9.018;2023-12-07T03:20:18;99523.28;;;-1.64;100.00
21240;BME280;10778;48.962;9.018;2023-12-07T03:22:44;99528.53;;;-1.67;100.00
21240;BME280;10778;48.962;9.018;2023-12-07T03:25:10;99523.38;;;-1.67;100.00
21240;BME280;10778;48.962;9.018;2023-12-07T03:27:36;99531.19;;;-1.69;100.00
21240;BME280;10778;48.962;9.018;2023-12-07T03:30:02;99517.44;;;-1.69;100.00
21240;BME280;10778;48.962;9.018;2023-12-07T03:32:28;99529.59;;;-1.73;100.00
21240;BME280;10778;48.962;9.018;2023-12-07T03:34:54;99524.63;;;-1.79;100.00
21240;BME280;10778;48.962;9.018;2023-12-07T03:37:20;99530.53;;;-1.76;100.00
21240;BME280;10778;48.962;9.018;2023-12-07T03:39:47;99521.38;;;-1.84;100.00
21240;BME280;10778;48.962;9.018;2023-12-07T03:42:13;99533.50;;;-1.88;100.00
21240;BME280;10778;48.962;9.018;2023-12-07T03:44:39;99526.56;;;-1.86;100.00
21240;BME280;10778;48.962;9.018;2023-12-07T03:47:05;99533.59;;;-1.91;100.00
21240;BME280;10778;48.962;9.018;2023-12-07T03:49:31;99535.41;;;-1.93;100.00
21240;BME280;10778;48.962;9.018;2023-12-07T03:51:57;99539.00;;;-1.99;100.00
21240;BME280;10778;48.962;9.018;2023-12-07T03:54:23;99537.34;;;-2.02;100.00
21240;BME280;10778;48.962;9.018;2023-12-07T03:56:49;99536.53;;;-2.02;100.00
21240;BME280;10778;48.962;9.018;2023-12-07T03:59:15;99539.91;;;-2.00;100.00
21240;BME280;10778;48.962;9.018;2023-12-07T04:01:41;99541.72;;;-2.04;100.00
21240;BME280;10778;48.962;9.018;2023-12-07T04:04:07;99540.81;;;-2.03;100.00
21240;BME280;10778;48.962;9.018;2023-12-07T04:06:33;99554.72;;;-2.07;100.00
21240;BME280;10778;48.962;9.018;2023-12-07T04:08:59;99549.56;;;-2.07;100.00
21240;BME280;10778;48.962;9.018;2023-12-07T04:11:25;99544.50;;;-2.10;100.00
21240;BME280;10778;48.962;9.018;2023-12-07T04:13:51;99560.00;;;-2.11;100.00
21240;BME280;10778;48.962;9.018;2023-12-07T04:16:17;99552.22;;;-2.10;100.00
21240;BME280;10778;48.962;9.018;2023-12-07T04:18:43;99541.13;;;-2.12;100.00
21240;BME280;10778;48.962;9.018;2023-12-07T04:21:09;99547.91;;;-2.09;100.00
21240;BME280;10778;48.962;9.018;2023-12-07T04:23:35;99547.16;;;-2.13;100.00
21240;BME280;10778;48.962;9.018;2023-12-07T04:26:01;99555.13;;;-2.21;100.00
21240;BME280;10778;48.962;9.018;2023-12-07T04:28:27;99545.75;;;-2.23;100.00
21240;BME280;10778;48.962;9.018;2023-12-07T04:30:53;99551.59;;;-2.18;100.00
21240;BME280;10778;48.962;9.018;2023-12-07T04:33:20;99559.22;;;-2.15;100.00
21240;BME280;10778;48.962;9.018;2023-12-07T04:35:46;99553.38;;;-2.20;100.00
21240;BME280;10778;48.962;9.018;2023-12-07T04:38:13;99560.34;;;-2.24;100.00
21240;BME280;10778;48.962;9.018;2023-12-07T04:40:39;99563.03;;;-2.27;100.00
21240;BME280;10778;48.962;9.018;2023-12-07T04:43:05;99561.47;;;-2.33;100.00
21240;BME280;10778;48.962;9.018;2023-12-07T04:45:31;99558.09;;;-2.35;100.00
21240;BME280;10778;48.962;9.018;2023-12-07T04:47:56;99558.25;;;-2.39;100.00
21240;BME280;10778;48.962;9.018;2023-12-07T04:50:23;99565.91;;;-2.38;100.00
21240;BME280;10778;48.962;9.018;2023-12-07T04:52:49;99563.31;;;-2.36;100.00
21240;BME280;10778;48.962;9.018;2023-12-07T04:55:15;99561.63;;;-2.37;100.00
21240;BME280;10778;48.962;9.018;2023-12-07T04:57:41;99561.84;;;-2.45;100.00
21240;BME280;10778;48.962;9.018;2023-12-07T05:00:08;99562.63;;;-2.43;100.00
21240;BME280;10778;48.962;9.018;2023-12-07T05:02:35;99573.28;;;-2.55;100.00
21240;BME280;10778;48.962;9.018;2023-12-07T05:05:02;99567.16;;;-2.51;100.00
21240;BME280;10778;48.962;9.018;2023-12-07T05:07:28;99568.03;;;-2.52;100.00
21240;BME280;10778;48.962;9.018;2023-12-07T05:09:54;99566.34;;;-2.53;100.00
21240;BME280;10778;48.962;9.018;2023-12-07T05:12:20;99569.91;;;-2.58;100.00
21240;BME280;10778;48.962;9.018;2023-12-07T05:14:45;99578.03;;;-2.72;100.00
21240;BME280;10778;48.962;9.018;2023-12-07T05:17:12;99579.97;;;-2.80;100.00
21240;BME280;10778;48.962;9.018;2023-12-07T05:19:39;99580.03;;;-2.83;100.00
21240;BME280;10778;48.962;9.018;2023-12-07T05:22:05;99575.91;;;-2.89;100.00
21240;BME280;10778;48.962;9.018;2023-12-07T05:24:31;99574.00;;;-2.82;100.00
21240;BME280;10778;48.962;9.018;2023-12-07T05:27:00;99583.53;;;-2.86;100.00
21240;BME280;10778;48.962;9.018;2023-12-07T05:29:26;99590.38;;;-2.84;100.00
21240;BME280;10778;48.962;9.018;2023-12-07T05:31:52;99575.91;;;-2.89;100.00
21240;BME280;10778;48.962;9.018;2023-12-07T05:34:18;99582.09;;;-2.96;100.00
21240;BME280;10778;48.962;9.018;2023-12-07T05:36:44;99585.59;;;-2.98;100.00
21240;BME280;10778;48.962;9.018;2023-12-07T05:39:12;99579.28;;;-2.87;100.00
21240;BME280;10778;48.962;9.018;2023-12-07T05:41:39;99568.63;;;-2.73;100.00
21240;BME280;10778;48.962;9.018;2023-12-07T05:44:05;99561.63;;;-1.26;100.00
21240;BME280;10778;48.962;9.018;2023-12-07T05:46:31;99561.22;;;-0.89;100.00
21240;BME280;10778;48.962;9.018;2023-12-07T05:48:58;99563.56;;;-0.33;100.00
21240;BME280;10778;48.962;9.018;2023-12-07T05:51:24;99560.41;;;-0.65;100.00
21240;BME280;10778;48.962;9.018;2023-12-07T05:53:50;99563.72;;;-0.38;100.00
21240;BME280;10778;48.962;9.018;2023-12-07T05:56:20;99569.97;;;0.03;100.00
21240;BME280;10778;48.962;9.018;2023-12-07T05:58:46;99568.69;;;-0.81;100.00
21240;BME280;10778;48.962;9.018;2023-12-07T06:01:16;99578.41;;;-1.40;100.00
21240;BME280;10778;48.962;9.018;2023-12-07T06:03:43;99567.06;;;-0.83;100.00
21240;BME280;10778;48.962;9.018;2023-12-07T06:06:13;99570.84;;;-0.68;100.00
21240;BME280;10778;48.962;9.018;2023-12-07T06:08:39;99576.06;;;-1.21;100.00
21240;BME280;10778;48.962;9.018;2023-12-07T06:11:05;99582.97;;;-0.96;100.00
21240;BME280;10778;48.962;9.018;2023-12-07T06:13:31;99585.47;;;-1.18;100.00
21240;BME280;10778;48.962;9.018;2023-12-07T06:15:57;99587.66;;;-1.60;100.00
21240;BME280;10778;48.962;9.018;2023-12-07T06:18:23;99582.59;;;-1.91;100.00
21240;BME280;10778;48.962;9.018;2023-12-07T06:20:49;99589.19;;;-2.39;100.00
21240;BME280;10778;48.962;9.018;2023-12-07T06:23:15;99590.31;;;-2.50;100.00
21240;BME280;10778;48.962;9.018;2023-12-07T06:25:41;99587.91;;;-2.56;100.00
21240;BME280;10778;48.962;9.018;2023-12-07T06:28:07;99586.28;;;-2.60;100.00
21240;BME280;10778;48.962;9.018;2023-12-07T06:30:33;99590.25;;;-2.80;100.00
21240;BME280;10778;48.962;9.018;2023-12-07T06:33:00;99593.97;;;-2.90;100.00
21240;BME280;10778;48.962;9.018;2023-12-07T06:35:26;99581.13;;;-2.92;100.00
21240;BME280;10778;48.962;9.018;2023-12-07T06:37:53;99581.94;;;-2.90;100.00
21240;BME280;10778;48.962;9.018;2023-12-07T06:40:19;99590.72;;;-2.97;100.00
21240;BME280;10778;48.962;9.018;2023-12-07T06:42:46;99589.06;;;-3.00;100.00
21240;BME280;10778;48.962;9.018;2023-12-07T06:45:12;99589.03;;;-2.98;100.00
21240;BME280;10778;48.962;9.018;2023-12-07T06:47:40;99591.53;;;-2.96;100.00
21240;BME280;10778;48.962;9.018;2023-12-07T06:50:08;99598.31;;;-2.92;100.00
21240;BME280;10778;48.962;9.018;2023-12-07T06:52:39;99601.91;;;-2.98;100.00
21240;BME280;10778;48.962;9.018;2023-12-07T06:55:06;99596.97;;;-3.07;100.00
21240;BME280;10778;48.962;9.018;2023-12-07T06:57:32;99589.84;;;-3.31;100.00
21240;BME280;10778;48.962;9.018;2023-12-07T06:59:59;99593.28;;;-3.32;100.00
21240;BME280;10778;48.962;9.018;2023-12-07T07:02:25;99596.84;;;-3.37;100.00
21240;BME280;10778;48.962;9.018;2023-12-07T07:04:51;99595.84;;;-3.30;100.00
21240;BME280;10778;48.962;9.018;2023-12-07T07:07:17;99596.59;;;-3.26;100.00
21240;BME280;10778;48.962;9.018;2023-12-07T07:09:43;99603.63;;;-3.33;100.00
21240;BME280;10778;48.962;9.018;2023-12-07T07:12:09;99591.69;;;-3.36;100.00
21240;BME280;10778;48.962;9.018;2023-12-07T07:14:36;99590.78;;;-3.33;100.00
21240;BME280;10778;48.962;9.018;2023-12-07T07:17:02;99601.19;;;-3.39;100.00
21240;BME280;10778;48.962;9.018;2023-12-07T07:19:30;99593.59;;;-3.44;100.00
21240;BME280;10778;48.962;9.018;2023-12-07T07:21:56;99593.56;;;-3.43;100.00
21240;BME280;10778;48.962;9.018;2023-12-07T07:24:22;99596.28;;;-3.49;100.00
21240;BME280;10778;48.962;9.018;2023-12-07T07:26:48;99600.28;;;-3.37;100.00
21240;BME280;10778;48.962;9.018;2023-12-07T07:29:14;99602.06;;;-3.39;100.00
21240;BME280;10778;48.962;9.018;2023-12-07T07:31:40;99595.69;;;-3.24;100.00
21240;BME280;10778;48.962;9.018;2023-12-07T07:34:06;99598.84;;;-3.12;100.00
21240;BME280;10778;48.962;9.018;2023-12-07T07:36:32;99596.16;;;-3.08;100.00
21240;BME280;10778;48.962;9.018;2023-12-07T07:38:58;99596.59;;;-2.92;100.00
21240;BME280;10778;48.962;9.018;2023-12-07T07:41:24;99603.13;;;-2.80;100.00
21240;BME280;10778;48.962;9.018;2023-12-07T07:43:50;99605.50;;;-2.72;100.00
21240;BME280;10778;48.962;9.018;2023-12-07T07:46:16;99616.53;;;-2.67;100.00
21240;BME280;10778;48.962;9.018;2023-12-07T07:48:42;99609.56;;;-2.63;100.00
21240;BME280;10778;48.962;9.018;2023-12-07T07:51:08;99609.56;;;-2.63;100.00
21240;BME280;10778;48.962;9.018;2023-12-07T07:53:34;99611.97;;;-2.57;100.00
21240;BME280;10778;48.962;9.018;2023-12-07T07:56:00;99615.28;;;-2.52;100.00
21240;BME280;10778;48.962;9.018;2023-12-07T07:58:26;99612.94;;;-2.30;100.00
21240;BME280;10778;48.962;9.018;2023-12-07T08:00:52;99614.63;;;-2.29;100.00
21240;BME280;10778;48.962;9.018;2023-12-07T08:03:18;99618.28;;;-2.06;100.00
21240;BME280;10778;48.962;9.018;2023-12-07T08:05:44;99619.88;;;-1.73;100.00
21240;BME280;10778;48.962;9.018;2023-12-07T08:08:10;99616.47;;;-1.47;100.00
21240;BME280;10778;48.962;9.018;2023-12-07T08:10:37;99614.69;;;-1.18;100.00
21240;BME280;10778;48.962;9.018;2023-12-07T08:13:05;99615.34;;;-1.38;100.00
21240;BME280;10778;48.962;9.018;2023-12-07T08:15:33;99621.25;;;-1.34;100.00
21240;BME280;10778;48.962;9.018;2023-12-07T08:17:59;99612.81;;;-0.62;100.00
21240;BME280;10778;48.962;9.018;2023-12-07T08:20:25;99605.34;;;0.02;100.00
21240;BME280;10778;48.962;9.018;2023-12-07T08:22:52;99598.00;;;0.13;100.00
21240;BME280;10778;48.962;9.018;2023-12-07T08:25:18;99598.59;;;1.48;97.61
21240;BME280;10778;48.962;9.018;2023-12-07T08:27:44;99598.75;;;2.76;88.69
21240;BME280;10778;48.962;9.018;2023-12-07T08:30:12;99589.94;;;2.78;82.58
21240;BME280;10778;48.962;9.018;2023-12-07T08:32:38;99589.25;;;3.10;82.74
21240;BME280;10778;48.962;9.018;2023-12-07T08:35:05;99583.06;;;2.95;80.46
21240;BME280;10778;48.962;9.018;2023-12-07T08:37:32;99586.75;;;3.24;77.67
21240;BME280;10778;48.962;9.018;2023-12-07T08:39:58;99581.09;;;3.34;78.59
21240;BME280;10778;48.962;9.018;2023-12-07T08:42:24;99581.22;;;4.45;76.32
21240;BME280;10778;48.962;9.018;2023-12-07T08:44:53;99561.13;;;5.22;71.98
21240;BME280;10778;48.962;9.018;2023-12-07T08:47:19;99554.50;;;6.44;66.35
21240;BME280;10778;48.962;9.018;2023-12-07T08:49:45;99549.31;;;6.70;64.02
21240;BME280;10778;48.962;9.018;2023-12-07T08:52:11;99542.75;;;7.29;62.21
21240;BME280;10778;48.962;9.018;2023-12-07T08:54:37;99544.13;;;7.85;62.11
21240;BME280;10778;48.962;9.018;2023-12-07T08:57:03;99543.66;;;7.91;62.00
21240;BME280;10778;48.962;9.018;2023-12-07T08:59:29;99546.66;;;7.10;62.96
21240;BME280;10778;48.962;9.018;2023-12-07T09:01:56;99541.69;;;6.80;65.61
21240;BME280;10778;48.962;9.018;2023-12-07T09:04:22;99533.97;;;6.91;64.99
21240;BME280;10778;48.962;9.018;2023-12-07T09:06:48;99526.97;;;7.18;65.95
21240;BME280;10778;48.962;9.018;2023-12-07T09:09:14;99530.00;;;7.75;62.98
21240;BME280;10778;48.962;9.018;2023-12-07T09:11:40;99523.19;;;8.70;59.86
21240;BME280;10778;48.962;9.018;2023-12-07T09:14:06;99522.31;;;8.58;60.23
21240;BME280;10778;48.962;9.018;2023-12-07T09:16:32;99513.47;;;9.29;60.19
21240;BME280;10778;48.962;9.018;2023-12-07T09:18:58;99522.19;;;9.52;57.26
21240;BME280;10778;48.962;9.018;2023-12-07T09:21:24;99520.50;;;9.62;58.84
21240;BME280;10778;48.962;9.018;2023-12-07T09:23:50;99540.81;;;9.26;60.14
21240;BME280;10778;48.962;9.018;2023-12-07T09:26:16;99544.13;;;9.05;60.55
21240;BME280;10778;48.962;9.018;2023-12-07T09:28:42;99509.66;;;9.44;60.03
21240;BME280;10778;48.962;9.018;2023-12-07T09:31:08;99514.78;;;9.46;59.24
21240;BME280;10778;48.962;9.018;2023-12-07T09:33:34;99516.47;;;10.35;58.61
21240;BME280;10778;48.962;9.018;2023-12-07T09:36:00;99509.13;;;10.17;58.89
21240;BME280;10778;48.962;9.018;2023-12-07T09:38:26;99509.03;;;10.07;58.47
21240;BME280;10778;48.962;9.018;2023-12-07T09:40:53;99521.69;;;10.14;59.56
21240;BME280;10778;48.962;9.018;2023-12-07T09:43:19;99516.34;;;10.04;57.83
21240;BME280;10778;48.962;9.018;2023-12-07T09:45:45;99513.16;;;9.89;60.49
21240;BME280;10778;48.962;9.018;2023-12-07T09:48:11;99515.59;;;10.13;58.43
21240;BME280;10778;48.962;9.018;2023-12-07T09:50:37;99525.47;;;10.32;58.79
21240;BME280;10778;48.962;9.018;2023-12-07T09:53:03;99517.25;;;10.14;59.16
21240;BME280;10778;48.962;9.018;2023-12-07T09:55:29;99512.19;;;10.01;58.95
21240;BME280;10778;48.962;9.018;2023-12-07T09:57:56;99510.22;;;10.15;58.98
21240;BME280;10778;48.962;9.018;2023-12-07T10:00:23;99500.88;;;9.78;59.21
21240;BME280;10778;48.962;9.018;2023-12-07T10:02:50;99499.38;;;9.64;60.69
21240;BME280;10778;48.962;9.018;2023-12-07T10:05:17;99487.78;;;10.32;58.55
21240;BME280;10778;48.962;9.018;2023-12-07T10:07:45;99487.19;;;10.61;58.59
21240;BME280;10778;48.962;9.018;2023-12-07T10:10:14;99485.53;;;10.81;57.43
21240;BME280;10778;48.962;9.018;2023-12-07T10:12:53;99484.91;;;9.70;60.83
21240;BME280;10778;48.962;9.018;2023-12-07T10:15:21;99476.88;;;9.71;60.24
21240;BME280;10778;48.962;9.018;2023-12-07T10:20:21;99478.75;;;9.14;62.20
21240;BME280;10778;48.962;9.018;2023-12-07T10:23:04;99492.22;;;8.15;64.14
21240;BME280;10778;48.962;9.018;2023-12-07T10:25:37;99483.97;;;8.08;66.93
21240;BME280;10778;48.962;9.018;2023-12-07T10:28:04;99471.47;;;8.11;66.06
21240;BME280;10778;48.962;9.018;2023-12-07T10:30:34;99462.59;;;8.61;64.58
21240;BME280;10778;48.962;9.018;2023-12-07T10:33:05;99464.97;;;8.29;65.51
21240;BME280;10778;48.962;9.018;2023-12-07T10:35:33;99456.47;;;8.14;65.66
21240;BME280;10778;48.962;9.018;2023-12-07T10:37:59;99457.31;;;8.50;65.20
21240;BME280;10778;48.962;9.018;2023-12-07T10:40:25;99460.69;;;7.92;66.16
21240;BME280;10778;48.962;9.018;2023-12-07T10:42:56;99461.00;;;7.87;67.67
21240;BME280;10778;48.962;9.018;2023-12-07T10:45:24;99463.38;;;7.79;66.70
21240;BME280;10778;48.962;9.018;2023-12-07T10:47:51;99462.81;;;8.22;65.52
21240;BME280;10778;48.962;9.018;2023-12-07T10:50:22;99467.88;;;8.37;65.95
21240;BME280;10778;48.962;9.018;2023-12-07T10:52:53;99464.34;;;7.89;66.61
21240;BME280;10778;48.962;9.018;2023-12-07T10:55:21;99463.78;;;7.73;66.88
21240;BME280;10778;48.962;9.018;2023-12-07T10:57:53;99459.34;;;7.86;69.69
21240;BME280;10778;48.962;9.018;2023-12-07T11:00:21;99461.63;;;7.29;67.57
21240;BME280;10778;48.962;9.018;2023-12-07T11:02:50;99454.13;;;6.86;70.39
21240;BME280;10778;48.962;9.018;2023-12-07T11:05:18;99443.03;;;6.69;71.91
21240;BME280;10778;48.962;9.018;2023-12-07T11:07:57;99427.31;;;7.08;70.65
21240;BME280;10778;48.962;9.018;2023-12-07T11:13:35;99411.06;;;7.53;69.66
21240;BME280;10778;48.962;9.018;2023-12-07T11:16:02;99403.59;;;7.84;67.56
21240;BME280;10778;48.962;9.018;2023-12-07T11:18:28;99396.69;;;7.83;68.25
21240;BME280;10778;48.962;9.018;2023-12-07T11:20:55;99393.41;;;8.39;65.23
21240;BME280;10778;48.962;9.018;2023-12-07T11:23:22;99390.53;;;8.31;65.97
21240;BME280;10778;48.962;9.018;2023-12-07T11:25:51;99387.66;;;7.87;64.79
21240;BME280;10778;48.962;9.018;2023-12-07T11:28:17;99387.50;;;6.91;70.56
21240;BME280;10778;48.962;9.018;2023-12-07T11:30:47;99383.72;;;6.95;72.21
21240;BME280;10778;48.962;9.018;2023-12-07T11:33:14;99378.16;;;7.62;67.12
21240;BME280;10778;48.962;9.018;2023-12-07T11:38:25;99368.91;;;7.45;66.08
21240;BME280;10778;48.962;9.018;2023-12-07T11:40:51;99360.28;;;7.56;67.78
21240;BME280;10778;48.962;9.018;2023-12-07T11:43:18;99353.13;;;7.93;65.71
21240;BME280;10778;48.962;9.018;2023-12-07T11:45:55;99339.78;;;8.44;63.21
21240;BME280;10778;48.962;9.018;2023-12-07T11:48:21;99333.69;;;8.32;64.78
21240;BME280;10778;48.962;9.018;2023-12-07T11:50:59;99327.16;;;8.72;62.84
21240;BME280;10778;48.962;9.018;2023-12-07T11:53:30;99341.13;;;7.91;64.76
21240;BME280;10778;48.962;9.018;2023-12-07T11:55:57;99340.06;;;7.33;67.36
21240;BME280;10778;48.962;9.018;2023-12-07T11:58:28;99335.88;;;7.31;67.30
21240;BME280;10778;48.962;9.018;2023-12-07T12:00:55;99334.69;;;6.73;68.60
21240;BME280;10778;48.962;9.018;2023-12-07T12:03:26;99326.56;;;6.39;71.47
21240;BME280;10778;48.962;9.018;2023-12-07T12:05:53;99322.03;;;6.67;70.03
21240;BME280;10778;48.962;9.018;2023-12-07T12:08:20;99329.41;;;6.36;70.13
21240;BME280;10778;48.962;9.018;2023-12-07T12:10:47;99314.47;;;6.12;72.29
21240;BME280;10778;48.962;9.018;2023-12-07T12:13:15;99309.84;;;6.03;72.66
21240;BME280;10778;48.962;9.018;2023-12-07T12:15:42;99311.00;;;6.24;72.05
21240;BME280;10778;48.962;9.018;2023-12-07T12:18:08;99299.59;;;6.51;71.06
21240;BME280;10778;48.962;9.018;2023-12-07T12:20:35;99293.31;;;6.54;70.73
21240;BME280;10778;48.962;9.018;2023-12-07T12:23:01;99297.38;;;6.58;69.25
21240;BME280;10778;48.962;9.018;2023-12-07T12:25:29;99280.56;;;6.49;69.71
21240;BME280;10778;48.962;9.018;2023-12-07T12:27:58;99294.69;;;6.84;69.48
21240;BME280;10778;48.962;9.018;2023-12-07T12:30:27;99276.38;;;6.97;68.73
21240;BME280;10778;48.962;9.018;2023-12-07T12:32:54;99278.31;;;6.69;67.42
21240;BME280;10778;48.962;9.018;2023-12-07T12:35:20;99261.31;;;6.88;65.28
21240;BME280;10778;48.962;9.018;2023-12-07T12:37:47;99265.97;;;6.71;65.39
21240;BME280;10778;48.962;9.018;2023-12-07T12:40:18;99252.03;;;6.46;64.17
21240;BME280;10778;48.962;9.018;2023-12-07T12:42:46;99252.06;;;6.71;64.23
21240;BME280;10778;48.962;9.018;2023-12-07T12:45:14;99260.88;;;6.69;65.78
21240;BME280;10778;48.962;9.018;2023-12-07T12:47:41;99251.09;;;6.85;65.53
21240;BME280;10778;48.962;9.018;2023-12-07T12:50:09;99244.41;;;6.43;63.88
21240;BME280;10778;48.962;9.018;2023-12-07T12:52:36;99240.91;;;6.68;65.88
21240;BME280;10778;48.962;9.018;2023-12-07T12:55:07;99241.00;;;7.16;64.05
21240;BME280;10778;48.962;9.018;2023-12-07T12:57:33;99237.69;;;7.14;62.47
21240;BME280;10778;48.962;9.018;2023-12-07T13:00:00;99228.34;;;7.92;60.34
21240;BME280;10778;48.962;9.018;2023-12-07T13:02:26;99231.91;;;7.91;60.84
21240;BME280;10778;48.962;9.018;2023-12-07T13:04:52;99216.69;;;8.19;57.95